sensor_id;sensor_type;location;lat;lon;timestamp;temperature;humidity
26721;HTU21D;15950;51.112;6.966;2023-01-09T00:00:30;20.10;53.49
26721;HTU21D;15950;51.112;6.966;2023-01-09T00:03:30;20.17;53.30
26721;HTU21D;15950;51.112;6.966;2023-01-09T00:06:30;20.21;53.29
26721;HTU21D;15950;51.112;6.966;2023-01-09T00:09:30;20.21;53.40
26721;HTU21D;15950;51.112;6.966;2023-01-09T00:12:30;20.17;53.36
26721;HTU21D;15950;51.112;6.966;2023-01-09T00:15:30;20.19;53.29
26721;HTU21D;15950;51.112;6.966;2023-01-09T00:18:30;20.20;53.20
26721;HTU21D;15950;51.112;6.966;2023-01-09T00:21:30;20.14;53.43
26721;HTU21D;15950;51.112;6.966;2023-01-09T00:24:30;20.13;53.47
26721;HTU21D;15950;51.112;6.966;2023-01-09T00:27:34;20.15;53.39
26721;HTU21D;15950;51.112;6.966;2023-01-09T00:30:30;20.18;53.14
26721;HTU21D;15950;51.112;6.966;2023-01-09T00:33:37;20.22;53.04
26721;HTU21D;15950;51.112;6.966;2023-01-09T00:36:30;20.17;53.03
26721;HTU21D;15950;51.112;6.966;2023-01-09T00:39:30;20.13;53.01
26721;HTU21D;15950;51.112;6.966;2023-01-09T00:42:32;20.20;52.79
26721;HTU21D;15950;51.112;6.966;2023-01-09T00:45:30;20.17;52.86
26721;HTU21D;15950;51.112;6.966;2023-01-09T00:48:31;20.17;52.80
26721;HTU21D;15950;51.112;6.966;2023-01-09T00:51:30;20.15;52.96
26721;HTU21D;15950;51.112;6.966;2023-01-09T00:54:31;20.20;52.75
26721;HTU21D;15950;51.112;6.966;2023-01-09T00:57:30;20.20;52.80
26721;HTU21D;15950;51.112;6.966;2023-01-09T01:00:30;20.20;52.60
26721;HTU21D;15950;51.112;6.966;2023-01-09T01:03:30;20.10;53.13
26721;HTU21D;15950;51.112;6.966;2023-01-09T01:06:30;20.12;53.01
26721;HTU21D;15950;51.112;6.966;2023-01-09T01:09:30;20.14;52.91
26721;HTU21D;15950;51.112;6.966;2023-01-09T01:12:30;20.09;52.95
26721;HTU21D;15950;51.112;6.966;2023-01-09T01:15:30;20.03;53.17
26721;HTU21D;15950;51.112;6.966;2023-01-09T01:18:30;20.00;53.29
26721;HTU21D;15950;51.112;6.966;2023-01-09T01:21:30;20.09;52.97
26721;HTU21D;15950;51.112;6.966;2023-01-09T01:24:30;20.10;52.93
26721;HTU21D;15950;51.112;6.966;2023-01-09T01:27:30;20.11;52.69
26721;HTU21D;15950;51.112;6.966;2023-01-09T01:30:30;20.13;52.48
26721;HTU21D;15950;51.112;6.966;2023-01-09T01:33:31;20.12;52.52
26721;HTU21D;15950;51.112;6.966;2023-01-09T01:36:30;20.09;52.69
26721;HTU21D;15950;51.112;6.966;2023-01-09T01:39:30;20.11;52.61
26721;HTU21D;15950;51.112;6.966;2023-01-09T01:42:30;20.13;52.37
26721;HTU21D;15950;51.112;6.966;2023-01-09T01:45:30;20.12;52.33
26721;HTU21D;15950;51.112;6.966;2023-01-09T01:48:31;20.12;52.36
26721;HTU21D;15950;51.112;6.966;2023-01-09T01:51:32;20.13;52.29
26721;HTU21D;15950;51.112;6.966;2023-01-09T01:54:31;20.12;52.40
26721;HTU21D;15950;51.112;6.966;2023-01-09T01:57:31;20.11;52.43
26721;HTU21D;15950;51.112;6.966;2023-01-09T02:00:34;20.13;52.29
26721;HTU21D;15950;51.112;6.966;2023-01-09T02:03:31;20.11;52.43
26721;HTU21D;15950;51.112;6.966;2023-01-09T02:06:32;20.10;52.40
26721;HTU21D;15950;51.112;6.966;2023-01-09T02:09:30;20.05;52.48
26721;HTU21D;15950;51.112;6.966;2023-01-09T02:12:30;20.05;52.59
26721;HTU21D;15950;51.112;6.966;2023-01-09T02:16:21;20.06;52.63
26721;HTU21D;15950;51.112;6.966;2023-01-09T02:33:38;20.10;52.02
26721;HTU21D;15950;51.112;6.966;2023-01-09T02:39:37;20.13;51.97
26721;HTU21D;15950;51.112;6.966;2023-01-09T02:42:30;20.12;52.08
26721;HTU21D;15950;51.112;6.966;2023-01-09T02:45:30;20.08;52.12
26721;HTU21D;15950;51.112;6.966;2023-01-09T02:48:31;20.05;52.33
26721;HTU21D;15950;51.112;6.966;2023-01-09T02:55:19;20.05;52.16
26721;HTU21D;15950;51.112;6.966;2023-01-09T02:57:40;20.02;52.28
26721;HTU21D;15950;51.112;6.966;2023-01-09T03:03:34;19.99;52.16
26721;HTU21D;15950;51.112;6.966;2023-01-09T03:09:32;20.01;52.04
26721;HTU21D;15950;51.112;6.966;2023-01-09T03:12:31;19.99;52.09
26721;HTU21D;15950;51.112;6.966;2023-01-09T03:15:33;20.01;52.07
26721;HTU21D;15950;51.112;6.966;2023-01-09T03:18:31;20.01;52.06
26721;HTU21D;15950;51.112;6.966;2023-01-09T03:21:31;20.00;52.11
26721;HTU21D;15950;51.112;6.966;2023-01-09T03:24:30;19.92;52.53
26721;HTU21D;15950;51.112;6.966;2023-01-09T03:27:30;19.98;52.14
26721;HTU21D;15950;51.112;6.966;2023-01-09T03:30:32;19.98;52.11
26721;HTU21D;15950;51.112;6.966;2023-01-09T03:33:30;20.00;52.01
26721;HTU21D;15950;51.112;6.966;2023-01-09T03:36:30;20.00;52.01
26721;HTU21D;15950;51.112;6.966;2023-01-09T03:39:31;20.00;52.23
26721;HTU21D;15950;51.112;6.966;2023-01-09T03:42:30;20.00;52.05
26721;HTU21D;15950;51.112;6.966;2023-01-09T03:45:30;19.96;52.20
26721;HTU21D;15950;51.112;6.966;2023-01-09T03:48:30;19.95;52.49
26721;HTU21D;15950;51.112;6.966;2023-01-09T03:51:30;19.87;52.75
26721;HTU21D;15950;51.112;6.966;2023-01-09T03:54:30;19.81;52.75
26721;HTU21D;15950;51.112;6.966;2023-01-09T03:57:30;19.78;52.61
26721;HTU21D;15950;51.112;6.966;2023-01-09T04:00:30;19.87;52.46
26721;HTU21D;15950;51.112;6.966;2023-01-09T04:03:30;19.88;52.41
26721;HTU21D;15950;51.112;6.966;2023-01-09T04:06:30;19.87;52.31
26721;HTU21D;15950;51.112;6.966;2023-01-09T04:09:30;19.89;51.90
26721;HTU21D;15950;51.112;6.966;2023-01-09T04:12:30;19.97;51.70
26721;HTU21D;15950;51.112;6.966;2023-01-09T04:15:30;20.02;51.52
26721;HTU21D;15950;51.112;6.966;2023-01-09T04:18:30;20.03;51.24
26721;HTU21D;15950;51.112;6.966;2023-01-09T04:21:30;20.05;51.24
26721;HTU21D;15950;51.112;6.966;2023-01-09T04:24:30;20.05;51.13
26721;HTU21D;15950;51.112;6.966;2023-01-09T04:27:30;20.00;51.22
26721;HTU21D;15950;51.112;6.966;2023-01-09T04:30:30;20.01;51.21
26721;HTU21D;15950;51.112;6.966;2023-01-09T04:33:30;19.98;51.23
26721;HTU21D;15950;51.112;6.966;2023-01-09T04:36:30;20.00;51.21
26721;HTU21D;15950;51.112;6.966;2023-01-09T04:39:30;20.00;51.31
26721;HTU21D;15950;51.112;6.966;2023-01-09T04:42:30;20.01;51.59
26721;HTU21D;15950;51.112;6.966;2023-01-09T04:45:30;19.99;51.49
26721;HTU21D;15950;51.112;6.966;2023-01-09T04:48:30;20.02;51.17
26721;HTU21D;15950;51.112;6.966;2023-01-09T04:51:30;20.00;51.11
26721;HTU21D;15950;51.112;6.966;2023-01-09T04:54:30;19.94;51.43
26721;HTU21D;15950;51.112;6.966;2023-01-09T04:57:30;19.93;51.30
26721;HTU21D;15950;51.112;6.966;2023-01-09T05:00:30;19.91;51.38
26721;HTU21D;15950;51.112;6.966;2023-01-09T05:03:30;19.91;51.29
26721;HTU21D;15950;51.112;6.966;2023-01-09T05:06:31;19.92;51.25
26721;HTU21D;15950;51.112;6.966;2023-01-09T05:09:30;19.88;51.31
26721;HTU21D;15950;51.112;6.966;2023-01-09T05:12:30;19.91;51.40
26721;HTU21D;15950;51.112;6.966;2023-01-09T05:15:30;19.90;51.31
26721;HTU21D;15950;51.112;6.966;2023-01-09T05:18:30;19.91;51.27
26721;HTU21D;15950;51.112;6.966;2023-01-09T05:21:30;19.90;51.23
26721;HTU21D;15950;51.112;6.966;2023-01-09T05:24:30;19.90;51.35
26721;HTU21D;15950;51.112;6.966;2023-01-09T05:27:30;19.91;51.33
26721;HTU21D;15950;51.112;6.966;2023-01-09T05:30:30;19.95;51.13
26721;HTU21D;15950;51.112;6.966;2023-01-09T05:33:30;19.92;51.19
26721;HTU21D;15950;51.112;6.966;2023-01-09T05:36:30;19.93;51.11
26721;HTU21D;15950;51.112;6.966;2023-01-09T05:39:30;19.95;51.11
26721;HTU21D;15950;51.112;6.966;2023-01-09T05:42:30;19.94;51.08
26721;HTU21D;15950;51.112;6.966;2023-01-09T05:45:30;19.92;51.12
26721;HTU21D;15950;51.112;6.966;2023-01-09T05:48:30;19.92;51.02
26721;HTU21D;15950;51.112;6.966;2023-01-09T05:51:30;19.98;50.95
26721;HTU21D;15950;51.112;6.966;2023-01-09T05:54:30;19.95;50.94
26721;HTU21D;15950;51.112;6.966;2023-01-09T05:57:30;19.93;50.98
26721;HTU21D;15950;51.112;6.966;2023-01-09T06:00:30;19.96;50.86
26721;HTU21D;15950;51.112;6.966;2023-01-09T06:03:30;19.94;50.92
26721;HTU21D;15950;51.112;6.966;2023-01-09T06:06:30;19.91;50.95
26721;HTU21D;15950;51.112;6.966;2023-01-09T06:09:30;19.95;50.92
26721;HTU21D;15950;51.112;6.966;2023-01-09T06:12:30;19.96;50.94
26721;HTU21D;15950;51.112;6.966;2023-01-09T06:15:30;19.94;50.85
26721;HTU21D;15950;51.112;6.966;2023-01-09T06:18:30;20.00;50.76
26721;HTU21D;15950;51.112;6.966;2023-01-09T06:21:31;20.01;50.60
26721;HTU21D;15950;51.112;6.966;2023-01-09T06:24:30;19.98;50.68
26721;HTU21D;15950;51.112;6.966;2023-01-09T06:27:30;19.96;50.74
26721;HTU21D;15950;51.112;6.966;2023-01-09T06:30:30;19.97;50.82
26721;HTU21D;15950;51.112;6.966;2023-01-09T06:33:30;19.95;50.78
26721;HTU21D;15950;51.112;6.966;2023-01-09T06:36:30;19.96;50.83
26721;HTU21D;15950;51.112;6.966;2023-01-09T06:39:30;19.96;50.85
26721;HTU21D;15950;51.112;6.966;2023-01-09T06:42:30;19.92;50.90
26721;HTU21D;15950;51.112;6.966;2023-01-09T06:45:30;19.95;50.86
26721;HTU21D;15950;51.112;6.966;2023-01-09T06:48:31;19.95;50.82
26721;HTU21D;15950;51.112;6.966;2023-01-09T06:51:30;19.97;50.79
26721;HTU21D;15950;51.112;6.966;2023-01-09T06:54:30;19.98;50.68
26721;HTU21D;15950;51.112;6.966;2023-01-09T06:57:30;20.00;50.60
26721;HTU21D;15950;51.112;6.966;2023-01-09T07:00:30;19.98;50.65
26721;HTU21D;15950;51.112;6.966;2023-01-09T07:03:30;19.95;50.73
26721;HTU21D;15950;51.112;6.966;2023-01-09T07:06:30;19.99;50.66
26721;HTU21D;15950;51.112;6.966;2023-01-09T07:09:30;19.94;50.59
26721;HTU21D;15950;51.112;6.966;2023-01-09T07:12:30;20.09;50.63
26721;HTU21D;15950;51.112;6.966;2023-01-09T07:15:30;20.18;50.54
26721;HTU21D;15950;51.112;6.966;2023-01-09T07:18:30;20.23;50.42
26721;HTU21D;15950;51.112;6.966;2023-01-09T07:21:30;20.20;50.36
26721;HTU21D;15950;51.112;6.966;2023-01-09T07:24:30;20.13;51.79
26721;HTU21D;15950;51.112;6.966;2023-01-09T07:27:30;20.21;51.46
26721;HTU21D;15950;51.112;6.966;2023-01-09T07:30:30;20.28;51.23
26721;HTU21D;15950;51.112;6.966;2023-01-09T07:33:30;20.30;51.25
26721;HTU21D;15950;51.112;6.966;2023-01-09T07:36:30;20.31;51.18
26721;HTU21D;15950;51.112;6.966;2023-01-09T07:39:30;20.28;51.37
26721;HTU21D;15950;51.112;6.966;2023-01-09T07:42:30;20.31;51.29
26721;HTU21D;15950;51.112;6.966;2023-01-09T07:45:30;20.28;51.11
26721;HTU21D;15950;51.112;6.966;2023-01-09T07:48:30;20.24;51.34
26721;HTU21D;15950;51.112;6.966;2023-01-09T07:51:30;20.23;51.22
26721;HTU21D;15950;51.112;6.966;2023-01-09T07:54:31;20.16;51.15
26721;HTU21D;15950;51.112;6.966;2023-01-09T07:57:30;20.10;51.11
26721;HTU21D;15950;51.112;6.966;2023-01-09T08:00:30;20.11;51.20
26721;HTU21D;15950;51.112;6.966;2023-01-09T08:03:30;20.12;51.21
26721;HTU21D;15950;51.112;6.966;2023-01-09T08:06:31;20.14;51.08
26721;HTU21D;15950;51.112;6.966;2023-01-09T08:09:30;20.10;51.14
26721;HTU21D;15950;51.112;6.966;2023-01-09T08:12:30;20.08;51.17
26721;HTU21D;15950;51.112;6.966;2023-01-09T08:15:30;20.15;51.04
26721;HTU21D;15950;51.112;6.966;2023-01-09T08:18:30;20.16;50.92
26721;HTU21D;15950;51.112;6.966;2023-01-09T08:21:30;20.12;50.91
26721;HTU21D;15950;51.112;6.966;2023-01-09T08:24:30;20.13;50.85
26721;HTU21D;15950;51.112;6.966;2023-01-09T08:27:30;20.11;50.84
26721;HTU21D;15950;51.112;6.966;2023-01-09T08:30:30;20.13;50.79
26721;HTU21D;15950;51.112;6.966;2023-01-09T08:33:30;20.09;50.85
26721;HTU21D;15950;51.112;6.966;2023-01-09T08:36:30;20.14;50.82
26721;HTU21D;15950;51.112;6.966;2023-01-09T08:39:30;20.17;50.63
26721;HTU21D;15950;51.112;6.966;2023-01-09T08:42:30;20.15;50.61
26721;HTU21D;15950;51.112;6.966;2023-01-09T08:45:31;20.16;50.65
26721;HTU21D;15950;51.112;6.966;2023-01-09T08:48:30;20.24;50.34
26721;HTU21D;15950;51.112;6.966;2023-01-09T08:51:30;20.20;50.27
26721;HTU21D;15950;51.112;6.966;2023-01-09T08:54:30;20.22;50.56
26721;HTU21D;15950;51.112;6.966;2023-01-09T08:57:30;20.22;50.20
26721;HTU21D;15950;51.112;6.966;2023-01-09T09:00:30;20.14;50.54
26721;HTU21D;15950;51.112;6.966;2023-01-09T09:03:30;20.19;50.70
26721;HTU21D;15950;51.112;6.966;2023-01-09T09:06:31;20.29;50.56
26721;HTU21D;15950;51.112;6.966;2023-01-09T09:09:30;20.26;50.82
26721;HTU21D;15950;51.112;6.966;2023-01-09T09:12:30;20.35;50.72
26721;HTU21D;15950;51.112;6.966;2023-01-09T09:15:30;20.32;50.95
26721;HTU21D;15950;51.112;6.966;2023-01-09T09:18:30;20.44;50.60
26721;HTU21D;15950;51.112;6.966;2023-01-09T09:21:30;20.47;50.55
26721;HTU21D;15950;51.112;6.966;2023-01-09T09:24:30;20.49;50.58
26721;HTU21D;15950;51.112;6.966;2023-01-09T09:27:31;20.53;50.33
26721;HTU21D;15950;51.112;6.966;2023-01-09T09:30:30;20.52;50.53
26721;HTU21D;15950;51.112;6.966;2023-01-09T09:33:30;20.52;50.53
26721;HTU21D;15950;51.112;6.966;2023-01-09T09:36:30;20.47;50.55
26721;HTU21D;15950;51.112;6.966;2023-01-09T09:39:30;20.50;50.66
26721;HTU21D;15950;51.112;6.966;2023-01-09T09:42:42;20.48;50.66
26721;HTU21D;15950;51.112;6.966;2023-01-09T09:48:42;20.49;50.50
26721;HTU21D;15950;51.112;6.966;2023-01-09T09:54:42;20.48;50.55
26721;HTU21D;15950;51.112;6.966;2023-01-09T09:57:35;20.45;50.44
26721;HTU21D;15950;51.112;6.966;2023-01-09T10:00:30;20.42;50.47
26721;HTU21D;15950;51.112;6.966;2023-01-09T10:06:33;20.34;50.34
26721;HTU21D;15950;51.112;6.966;2023-01-09T10:15:37;20.30;50.34
26721;HTU21D;15950;51.112;6.966;2023-01-09T10:33:36;20.23;50.47
26721;HTU21D;15950;51.112;6.966;2023-01-09T10:39:42;20.26;50.23
26721;HTU21D;15950;51.112;6.966;2023-01-09T10:42:38;20.20;50.31
26721;HTU21D;15950;51.112;6.966;2023-01-09T10:45:37;20.20;50.34
26721;HTU21D;15950;51.112;6.966;2023-01-09T10:48:35;20.22;50.25
26721;HTU21D;15950;51.112;6.966;2023-01-09T10:51:41;20.22;50.26
26721;HTU21D;15950;51.112;6.966;2023-01-09T10:54:30;20.21;50.28
26721;HTU21D;15950;51.112;6.966;2023-01-09T11:00:30;20.20;50.46
26721;HTU21D;15950;51.112;6.966;2023-01-09T11:03:30;20.22;50.28
26721;HTU21D;15950;51.112;6.966;2023-01-09T11:06:36;20.22;50.23
26721;HTU21D;15950;51.112;6.966;2023-01-09T11:12:31;20.19;50.24
26721;HTU21D;15950;51.112;6.966;2023-01-09T11:15:30;20.23;50.11
26721;HTU21D;15950;51.112;6.966;2023-01-09T11:18:37;20.24;50.04
26721;HTU21D;15950;51.112;6.966;2023-01-09T11:21:35;20.25;50.02
26721;HTU21D;15950;51.112;6.966;2023-01-09T11:24:30;20.26;50.05
26721;HTU21D;15950;51.112;6.966;2023-01-09T11:27:30;20.24;50.11
26721;HTU21D;15950;51.112;6.966;2023-01-09T11:30:32;20.18;50.34
26721;HTU21D;15950;51.112;6.966;2023-01-09T11:33:35;20.21;50.31
26721;HTU21D;15950;51.112;6.966;2023-01-09T11:36:30;20.22;50.22
26721;HTU21D;15950;51.112;6.966;2023-01-09T11:39:32;20.20;50.25
26721;HTU21D;15950;51.112;6.966;2023-01-09T11:42:30;20.20;50.27
26721;HTU21D;15950;51.112;6.966;2023-01-09T11:45:32;20.25;50.21
26721;HTU21D;15950;51.112;6.966;2023-01-09T11:48:33;20.26;50.06
26721;HTU21D;15950;51.112;6.966;2023-01-09T11:51:33;20.31;49.99
26721;HTU21D;15950;51.112;6.966;2023-01-09T11:54:35;20.28;50.14
26721;HTU21D;15950;51.112;6.966;2023-01-09T11:57:30;20.27;52.26
26721;HTU21D;15950;51.112;6.966;2023-01-09T12:00:38;20.41;54.67
26721;HTU21D;15950;51.112;6.966;2023-01-09T12:21:38;20.50;51.78
26721;HTU21D;15950;51.112;6.966;2023-01-09T12:30:39;20.45;51.44
26721;HTU21D;15950;51.112;6.966;2023-01-09T12:54:44;20.32;51.25
26721;HTU21D;15950;51.112;6.966;2023-01-09T12:57:34;20.38;51.27
26721;HTU21D;15950;51.112;6.966;2023-01-09T13:00:35;20.35;51.06
26721;HTU21D;15950;51.112;6.966;2023-01-09T13:03:36;20.30;51.15
26721;HTU21D;15950;51.112;6.966;2023-01-09T13:06:32;20.27;51.28
26721;HTU21D;15950;51.112;6.966;2023-01-09T13:09:38;20.28;51.26
26721;HTU21D;15950;51.112;6.966;2023-01-09T13:12:34;20.24;51.34
26721;HTU21D;15950;51.112;6.966;2023-01-09T13:15:35;20.31;51.24
26721;HTU21D;15950;51.112;6.966;2023-01-09T13:18:39;20.32;51.04
26721;HTU21D;15950;51.112;6.966;2023-01-09T13:21:30;20.35;50.98
26721;HTU21D;15950;51.112;6.966;2023-01-09T13:27:35;20.31;51.04
26721;HTU21D;15950;51.112;6.966;2023-01-09T13:33:34;20.29;50.95
26721;HTU21D;15950;51.112;6.966;2023-01-09T13:36:32;20.26;50.98
26721;HTU21D;15950;51.112;6.966;2023-01-09T13:39:32;20.28;50.92
26721;HTU21D;15950;51.112;6.966;2023-01-09T13:42:30;19.99;46.34
26721;HTU21D;15950;51.112;6.966;2023-01-09T13:45:32;19.73;44.13
26721;HTU21D;15950;51.112;6.966;2023-01-09T13:48:38;19.76;45.34
26721;HTU21D;15950;51.112;6.966;2023-01-09T13:51:36;19.84;46.58
26721;HTU21D;15950;51.112;6.966;2023-01-09T13:57:31;20.03;46.70
26721;HTU21D;15950;51.112;6.966;2023-01-09T14:03:35;20.02;47.05
26721;HTU21D;15950;51.112;6.966;2023-01-09T14:06:30;20.05;47.21
26721;HTU21D;15950;51.112;6.966;2023-01-09T14:09:30;20.04;47.63
26721;HTU21D;15950;51.112;6.966;2023-01-09T14:12:36;20.08;47.73
26721;HTU21D;15950;51.112;6.966;2023-01-09T14:18:35;20.07;48.24
26721;HTU21D;15950;51.112;6.966;2023-01-09T14:24:41;20.20;48.57
26721;HTU21D;15950;51.112;6.966;2023-01-09T14:30:35;20.23;48.72
26721;HTU21D;15950;51.112;6.966;2023-01-09T14:33:30;20.16;49.00
26721;HTU21D;15950;51.112;6.966;2023-01-09T14:36:33;20.18;49.04
26721;HTU21D;15950;51.112;6.966;2023-01-09T14:39:31;20.18;49.18
26721;HTU21D;15950;51.112;6.966;2023-01-09T14:42:31;20.20;49.11
26721;HTU21D;15950;51.112;6.966;2023-01-09T14:45:30;20.13;49.37
26721;HTU21D;15950;51.112;6.966;2023-01-09T14:48:31;20.15;49.45
26721;HTU21D;15950;51.112;6.966;2023-01-09T14:51:33;20.16;49.56
26721;HTU21D;15950;51.112;6.966;2023-01-09T14:54:33;20.15;49.51
26721;HTU21D;15950;51.112;6.966;2023-01-09T14:57:32;20.26;49.66
26721;HTU21D;15950;51.112;6.966;2023-01-09T15:00:30;20.30;49.53
26721;HTU21D;15950;51.112;6.966;2023-01-09T15:06:34;20.31;50.05
26721;HTU21D;15950;51.112;6.966;2023-01-09T15:12:30;20.32;49.89
26721;HTU21D;15950;51.112;6.966;2023-01-09T15:15:30;20.33;49.90
26721;HTU21D;15950;51.112;6.966;2023-01-09T15:18:33;20.32;49.77
26721;HTU21D;15950;51.112;6.966;2023-01-09T15:21:31;20.32;49.78
26721;HTU21D;15950;51.112;6.966;2023-01-09T15:24:34;20.32;49.82
26721;HTU21D;15950;51.112;6.966;2023-01-09T15:27:30;20.31;49.80
26721;HTU21D;15950;51.112;6.966;2023-01-09T15:30:33;20.30;49.79
26721;HTU21D;15950;51.112;6.966;2023-01-09T15:33:31;20.28;49.81
26721;HTU21D;15950;51.112;6.966;2023-01-09T15:36:30;20.28;49.88
26721;HTU21D;15950;51.112;6.966;2023-01-09T15:39:34;20.26;49.85
26721;HTU21D;15950;51.112;6.966;2023-01-09T15:42:36;20.22;50.02
26721;HTU21D;15950;51.112;6.966;2023-01-09T15:45:38;20.22;50.25
26721;HTU21D;15950;51.112;6.966;2023-01-09T15:48:33;20.19;50.41
26721;HTU21D;15950;51.112;6.966;2023-01-09T15:51:30;20.17;50.50
26721;HTU21D;15950;51.112;6.966;2023-01-09T15:54:32;20.18;50.46
26721;HTU21D;15950;51.112;6.966;2023-01-09T15:57:31;20.21;50.40
26721;HTU21D;15950;51.112;6.966;2023-01-09T16:00:38;20.23;50.37
26721;HTU21D;15950;51.112;6.966;2023-01-09T16:03:30;20.22;50.31
26721;HTU21D;15950;51.112;6.966;2023-01-09T16:06:35;20.24;50.33
26721;HTU21D;15950;51.112;6.966;2023-01-09T16:09:31;20.26;50.34
26721;HTU21D;15950;51.112;6.966;2023-01-09T16:12:30;20.23;50.43
26721;HTU21D;15950;51.112;6.966;2023-01-09T16:15:32;20.32;50.31
26721;HTU21D;15950;51.112;6.966;2023-01-09T16:18:35;20.26;50.41
26721;HTU21D;15950;51.112;6.966;2023-01-09T16:21:35;20.26;50.66
26721;HTU21D;15950;51.112;6.966;2023-01-09T16:24:39;20.31;50.50
26721;HTU21D;15950;51.112;6.966;2023-01-09T16:27:33;20.31;50.53
26721;HTU21D;15950;51.112;6.966;2023-01-09T16:30:30;20.23;50.81
26721;HTU21D;15950;51.112;6.966;2023-01-09T16:33:31;20.22;51.59
26721;HTU21D;15950;51.112;6.966;2023-01-09T16:36:30;20.35;52.23
26721;HTU21D;15950;51.112;6.966;2023-01-09T16:39:30;20.60;52.46
26721;HTU21D;15950;51.112;6.966;2023-01-09T16:42:31;20.73;53.14
26721;HTU21D;15950;51.112;6.966;2023-01-09T16:48:32;20.80;56.87
26721;HTU21D;15950;51.112;6.966;2023-01-09T16:51:30;20.76;57.18
26721;HTU21D;15950;51.112;6.966;2023-01-09T16:54:30;20.72;55.99
26721;HTU21D;15950;51.112;6.966;2023-01-09T16:57:30;20.61;56.33
26721;HTU21D;15950;51.112;6.966;2023-01-09T17:00:30;20.65;55.55
26721;HTU21D;15950;51.112;6.966;2023-01-09T17:03:30;20.71;56.38
26721;HTU21D;15950;51.112;6.966;2023-01-09T17:06:31;20.84;55.02
26721;HTU21D;15950;51.112;6.966;2023-01-09T17:09:30;20.96;60.44
26721;HTU21D;15950;51.112;6.966;2023-01-09T17:12:30;20.97;63.21
26721;HTU21D;15950;51.112;6.966;2023-01-09T17:15:30;21.02;59.16
26721;HTU21D;15950;51.112;6.966;2023-01-09T17:18:30;21.01;57.57
26721;HTU21D;15950;51.112;6.966;2023-01-09T17:21:30;20.97;56.53
26721;HTU21D;15950;51.112;6.966;2023-01-09T17:24:30;21.02;55.69
26721;HTU21D;15950;51.112;6.966;2023-01-09T17:27:32;21.01;55.18
26721;HTU21D;15950;51.112;6.966;2023-01-09T17:30:30;21.02;54.64
26721;HTU21D;15950;51.112;6.966;2023-01-09T17:33:30;21.01;54.08
26721;HTU21D;15950;51.112;6.966;2023-01-09T17:36:31;20.99;53.36
26721;HTU21D;15950;51.112;6.966;2023-01-09T17:39:30;21.00;53.17
26721;HTU21D;15950;51.112;6.966;2023-01-09T17:42:30;20.97;53.22
26721;HTU21D;15950;51.112;6.966;2023-01-09T17:45:30;20.97;52.95
26721;HTU21D;15950;51.112;6.966;2023-01-09T17:48:30;20.96;52.75
26721;HTU21D;15950;51.112;6.966;2023-01-09T17:51:30;20.95;52.67
26721;HTU21D;15950;51.112;6.966;2023-01-09T17:54:30;20.97;52.49
26721;HTU21D;15950;51.112;6.966;2023-01-09T17:57:31;20.97;52.43
26721;HTU21D;15950;51.112;6.966;2023-01-09T18:00:32;20.94;52.28
26721;HTU21D;15950;51.112;6.966;2023-01-09T18:03:30;20.86;52.31
26721;HTU21D;15950;51.112;6.966;2023-01-09T18:06:30;20.86;52.36
26721;HTU21D;15950;51.112;6.966;2023-01-09T18:09:30;20.90;52.24
26721;HTU21D;15950;51.112;6.966;2023-01-09T18:12:30;21.00;51.91
26721;HTU21D;15950;51.112;6.966;2023-01-09T18:15:30;21.09;51.43
26721;HTU21D;15950;51.112;6.966;2023-01-09T18:18:30;21.20;51.09
26721;HTU21D;15950;51.112;6.966;2023-01-09T18:21:30;21.26;50.74
26721;HTU21D;15950;51.112;6.966;2023-01-09T18:24:30;21.30;50.61
26721;HTU21D;15950;51.112;6.966;2023-01-09T18:27:30;21.34;50.44
26721;HTU21D;15950;51.112;6.966;2023-01-09T18:30:30;21.31;50.42
26721;HTU21D;15950;51.112;6.966;2023-01-09T18:33:30;21.34;50.42
26721;HTU21D;15950;51.112;6.966;2023-01-09T18:36:30;21.29;50.34
26721;HTU21D;15950;51.112;6.966;2023-01-09T18:39:30;21.17;50.83
26721;HTU21D;15950;51.112;6.966;2023-01-09T18:42:30;21.10;51.34
26721;HTU21D;15950;51.112;6.966;2023-01-09T18:45:31;21.03;51.40
26721;HTU21D;15950;51.112;6.966;2023-01-09T18:48:30;20.92;51.62
26721;HTU21D;15950;51.112;6.966;2023-01-09T18:51:32;20.86;51.93
26721;HTU21D;15950;51.112;6.966;2023-01-09T18:54:30;20.81;52.11
26721;HTU21D;15950;51.112;6.966;2023-01-09T18:57:30;20.85;52.15
26721;HTU21D;15950;51.112;6.966;2023-01-09T19:00:30;20.73;52.48
26721;HTU21D;15950;51.112;6.966;2023-01-09T19:03:30;20.76;52.68
26721;HTU21D;15950;51.112;6.966;2023-01-09T19:06:30;20.76;52.82
26721;HTU21D;15950;51.112;6.966;2023-01-09T19:09:30;20.73;52.86
26721;HTU21D;15950;51.112;6.966;2023-01-09T19:12:30;20.74;52.94
26721;HTU21D;15950;51.112;6.966;2023-01-09T19:15:30;20.61;53.17
26721;HTU21D;15950;51.112;6.966;2023-01-09T19:18:35;20.64;53.47
26721;HTU21D;15950;51.112;6.966;2023-01-09T19:21:30;20.67;53.45
26721;HTU21D;15950;51.112;6.966;2023-01-09T19:24:30;20.67;53.43
26721;HTU21D;15950;51.112;6.966;2023-01-09T19:27:30;20.70;53.36
26721;HTU21D;15950;51.112;6.966;2023-01-09T19:30:30;20.70;53.36
26721;HTU21D;15950;51.112;6.966;2023-01-09T19:33:30;20.71;53.23
26721;HTU21D;15950;51.112;6.966;2023-01-09T19:36:30;20.68;53.30
26721;HTU21D;15950;51.112;6.966;2023-01-09T19:39:30;20.67;53.29
26721;HTU21D;15950;51.112;6.966;2023-01-09T19:42:30;20.57;53.36
26721;HTU21D;15950;51.112;6.966;2023-01-09T19:45:30;20.52;53.59
26721;HTU21D;15950;51.112;6.966;2023-01-09T19:48:30;20.54;53.70
26721;HTU21D;15950;51.112;6.966;2023-01-09T19:51:31;20.50;53.86
26721;HTU21D;15950;51.112;6.966;2023-01-09T19:54:30;20.54;53.55
26721;HTU21D;15950;51.112;6.966;2023-01-09T19:57:30;20.54;53.49
26721;HTU21D;15950;51.112;6.966;2023-01-09T20:00:30;20.50;53.55
26721;HTU21D;15950;51.112;6.966;2023-01-09T20:03:30;20.48;53.49
26721;HTU21D;15950;51.112;6.966;2023-01-09T20:06:30;20.54;53.38
26721;HTU21D;15950;51.112;6.966;2023-01-09T20:09:30;20.53;53.27
26721;HTU21D;15950;51.112;6.966;2023-01-09T20:12:31;20.51;53.23
26721;HTU21D;15950;51.112;6.966;2023-01-09T20:15:30;20.51;53.25
26721;HTU21D;15950;51.112;6.966;2023-01-09T20:18:31;20.47;53.24
26721;HTU21D;15950;51.112;6.966;2023-01-09T20:21:30;20.46;53.25
26721;HTU21D;15950;51.112;6.966;2023-01-09T20:24:30;20.48;53.22
26721;HTU21D;15950;51.112;6.966;2023-01-09T20:27:30;20.43;53.27
26721;HTU21D;15950;51.112;6.966;2023-01-09T20:30:30;20.44;53.20
26721;HTU21D;15950;51.112;6.966;2023-01-09T20:33:30;20.43;53.20
26721;HTU21D;15950;51.112;6.966;2023-01-09T20:36:30;20.43;53.18
26721;HTU21D;15950;51.112;6.966;2023-01-09T20:39:30;20.45;53.14
26721;HTU21D;15950;51.112;6.966;2023-01-09T20:42:30;20.43;53.15
26721;HTU21D;15950;51.112;6.966;2023-01-09T20:45:31;20.42;53.16
26721;HTU21D;15950;51.112;6.966;2023-01-09T20:48:30;20.44;53.04
26721;HTU21D;15950;51.112;6.966;2023-01-09T20:51:30;20.44;53.03
26721;HTU21D;15950;51.112;6.966;2023-01-09T20:54:30;20.45;52.96
26721;HTU21D;15950;51.112;6.966;2023-01-09T20:57:30;20.41;53.05